createdAt,value
2022-08-09T00:00:47.061Z,44.24
2022-08-09T00:01:54.487Z,44.34
2022-08-09T00:02:49.645Z,44.34
2022-08-09T00:04:03.731Z,44.34
2022-08-09T00:05:03.568Z,44.34
2022-08-09T00:06:19.696Z,44.34
2022-08-09T00:06:48.072Z,44.34
2022-08-09T00:07:47.243Z,44.43
2022-08-09T00:08:47.403Z,44.43
2022-08-09T00:09:47.554Z,44.43
2022-08-09T00:10:47.734Z,44.43
2022-08-09T00:12:04.475Z,44.43
2022-08-09T00:12:52.384Z,44.54
2022-08-09T00:13:48.215Z,44.54
2022-08-09T00:14:48.418Z,44.73
2022-08-09T00:15:58.864Z,44.64
2022-08-09T00:16:49.726Z,44.93
2022-08-09T00:18:04.601Z,44.75
2022-08-09T00:18:50.106Z,44.85
2022-08-09T00:19:49.276Z,44.75
2022-08-09T00:20:50.390Z,44.75
2022-08-09T00:21:55.873Z,44.75
2022-08-09T00:22:50.798Z,44.75
2022-08-09T00:23:56.008Z,44.85
2022-08-09T00:24:51.189Z,44.95
2022-08-09T00:25:51.843Z,44.85
2022-08-09T00:26:50.511Z,44.85
2022-08-09T00:27:50.663Z,44.85
2022-08-09T00:28:52.843Z,44.95
2022-08-09T00:30:23.665Z,44.95
2022-08-09T00:30:52.195Z,44.95
2022-08-09T00:31:59.229Z,44.95
2022-08-09T00:32:52.519Z,44.95
2022-08-09T00:33:52.153Z,44.95
2022-08-09T00:34:52.223Z,45.05
2022-08-09T00:35:52.049Z,45.05
2022-08-09T00:36:52.260Z,45.05
2022-08-09T00:37:52.420Z,45.05
2022-08-09T00:38:52.604Z,45.15
2022-08-09T00:40:12.294Z,45.05
2022-08-09T00:40:54.007Z,45.15
2022-08-09T00:44:13.948Z,45.05
2022-08-09T00:44:14.659Z,45.15
2022-08-09T00:44:14.998Z,45.15
2022-08-09T00:44:54.649Z,45.05
2022-08-09T00:45:54.309Z,45.15
2022-08-09T00:46:55.984Z,45.15
2022-08-09T00:47:55.491Z,45.15
2022-08-09T00:48:54.534Z,45.25
2022-08-09T00:49:56.714Z,45.15
2022-08-09T00:50:54.697Z,45.25
2022-08-09T00:51:56.231Z,45.25
2022-08-09T00:52:55.039Z,45.15
2022-08-09T00:53:55.201Z,45.25
2022-08-09T00:54:55.381Z,45.25
2022-08-09T00:56:05.621Z,45.25
2022-08-09T00:56:56.711Z,45.35
2022-08-09T00:57:59.295Z,45.25
2022-08-09T00:58:56.091Z,45.25
2022-08-09T00:59:56.247Z,45.35
2022-08-09T01:00:58.891Z,45.35
2022-08-09T01:01:56.678Z,45.35
2022-08-09T01:02:56.765Z,45.35
2022-08-09T01:03:56.993Z,45.25
2022-08-09T01:04:57.119Z,45.45
2022-08-09T01:05:57.274Z,45.35
2022-08-09T01:06:57.435Z,45.35
2022-08-09T01:08:01.009Z,45.35
2022-08-09T01:08:57.826Z,45.35
2022-08-09T01:09:57.995Z,45.45
2022-08-09T01:10:58.156Z,45.35
2022-08-09T01:11:58.312Z,45.54
2022-08-09T01:12:58.511Z,45.45
2022-08-09T01:14:01.828Z,45.45
2022-08-09T01:14:58.839Z,45.45
2022-08-09T01:15:59.010Z,45.45
2022-08-09T01:16:59.167Z,45.57
2022-08-09T01:17:59.339Z,45.54
2022-08-09T01:19:02.074Z,45.57
2022-08-09T01:20:01.578Z,45.54
2022-08-09T01:20:59.890Z,45.54
2022-08-09T01:22:00.239Z,45.67
2022-08-09T01:23:00.229Z,45.67
2022-08-09T01:24:03.596Z,45.67
2022-08-09T01:25:00.778Z,45.67
2022-08-09T01:26:00.708Z,45.67
2022-08-09T01:27:00.887Z,45.76
2022-08-09T01:28:01.045Z,45.67
2022-08-09T01:29:01.244Z,45.86
2022-08-09T01:30:01.425Z,45.76
2022-08-09T01:31:01.584Z,45.86
2022-08-09T01:32:29.810Z,45.86
2022-08-09T01:33:02.945Z,45.86
2022-08-09T01:34:02.125Z,45.86
2022-08-09T01:35:07.141Z,45.86
2022-08-09T01:36:03.474Z,45.86
2022-08-09T01:37:02.655Z,45.86
2022-08-09T01:38:09.255Z,45.96
2022-08-09T01:39:04.106Z,45.96
2022-08-09T01:40:03.181Z,46.16
2022-08-09T01:41:05.594Z,46.16
2022-08-09T01:42:06.397Z,46.16
2022-08-09T01:43:04.728Z,46.16
2022-08-09T01:44:03.910Z,46.06
2022-08-09T01:45:04.098Z,46.06
2022-08-09T01:46:04.280Z,46.16
2022-08-09T01:47:04.450Z,46.26
2022-08-09T01:48:06.233Z,46.26
2022-08-09T01:49:10.702Z,46.36
2022-08-09T01:50:06.596Z,46.26
2022-08-09T01:51:05.171Z,46.26
2022-08-09T01:52:07.094Z,46.36
2022-08-09T01:53:19.190Z,46.36
2022-08-09T01:54:06.697Z,46.38
2022-08-09T01:55:05.857Z,46.36
2022-08-09T01:56:06.015Z,46.28
2022-08-09T01:57:06.178Z,46.28
2022-08-09T01:58:06.366Z,46.28
2022-08-09T01:59:06.525Z,46.28
2022-08-09T02:00:08.961Z,46.38
2022-08-09T02:01:08.050Z,46.38
2022-08-09T02:02:07.042Z,46.48
2022-08-09T02:03:07.216Z,46.38
2022-08-09T02:04:08.479Z,46.58
2022-08-09T02:05:15.480Z,46.48
2022-08-09T02:06:08.696Z,46.48
2022-08-09T02:07:07.866Z,46.58
2022-08-09T02:08:40.561Z,46.48
2022-08-09T02:09:09.229Z,46.48
2022-08-09T02:10:08.400Z,46.58
2022-08-09T02:11:16.815Z,46.58
2022-08-09T02:12:09.759Z,46.67
2022-08-09T02:13:08.949Z,46.48
2022-08-09T02:14:09.444Z,46.58
2022-08-09T02:15:15.435Z,46.58
2022-08-09T02:16:10.465Z,46.58
2022-08-09T02:17:15.378Z,46.58
2022-08-09T02:18:10.982Z,46.58
2022-08-09T02:19:09.963Z,46.58
2022-08-09T02:20:10.131Z,46.58
2022-08-09T02:21:10.322Z,46.67
2022-08-09T02:22:11.503Z,46.88
2022-08-09T02:23:10.676Z,46.88
2022-08-09T02:24:10.843Z,47.27
2022-08-09T02:25:15.100Z,46.88
2022-08-09T02:26:27.017Z,46.88
2022-08-09T02:27:12.335Z,46.78
2022-08-09T02:28:12.503Z,46.78
2022-08-09T02:29:12.678Z,46.78
2022-08-09T02:30:11.855Z,46.78
2022-08-09T02:31:12.007Z,46.88
2022-08-09T02:32:12.168Z,46.78
2022-08-09T02:33:14.293Z,46.78
2022-08-09T02:34:13.215Z,46.78
2022-08-09T02:35:17.634Z,46.78
2022-08-09T02:36:12.898Z,46.88
2022-08-09T02:37:13.080Z,46.97
2022-08-09T02:38:23.635Z,46.97
2022-08-09T02:39:20.332Z,46.97
2022-08-09T02:40:14.602Z,46.97
2022-08-09T02:41:14.750Z,47.17
2022-08-09T02:42:13.926Z,47.17
2022-08-09T02:43:14.102Z,47.37
2022-08-09T02:44:29.153Z,47.66
2022-08-09T02:45:15.440Z,47.47
2022-08-09T02:46:14.592Z,47.27
2022-08-09T02:47:14.743Z,47.37
2022-08-09T02:48:29.777Z,47.37
2022-08-09T02:49:16.093Z,47.37
2022-08-09T02:50:15.273Z,47.66
2022-08-09T02:51:15.452Z,47.66
2022-08-09T02:52:15.615Z,47.37
2022-08-09T02:53:25.769Z,47.37
2022-08-09T02:54:16.942Z,47.27
2022-08-09T02:55:20.947Z,47.27
2022-08-09T02:56:17.297Z,47.27
2022-08-09T02:57:23.668Z,47.27
2022-08-09T02:58:35.252Z,47.27
2022-08-09T02:59:26.131Z,47.27
2022-08-09T03:00:25.512Z,47.27
2022-08-09T03:01:21.791Z,47.27
2022-08-09T03:02:18.376Z,47.27
2022-08-09T03:03:37.037Z,47.37
2022-08-09T03:04:19.736Z,47.37
2022-08-09T03:05:17.820Z,47.37
2022-08-09T03:06:17.980Z,47.37
2022-08-09T03:07:18.143Z,47.66
2022-08-09T03:08:18.342Z,47.56
2022-08-09T03:09:18.500Z,47.47
2022-08-09T03:10:18.683Z,47.47
2022-08-09T03:11:29.985Z,47.56
2022-08-09T03:12:20.022Z,47.37
2022-08-09T03:13:19.212Z,47.47
2022-08-09T03:14:19.385Z,47.37
2022-08-09T03:15:19.557Z,47.37
2022-08-09T03:16:19.770Z,47.47
2022-08-09T03:17:20.632Z,47.47
2022-08-09T03:18:30.686Z,47.66
2022-08-09T03:19:59.353Z,47.47
2022-08-09T03:20:21.415Z,47.66
2022-08-09T03:21:20.601Z,47.56
2022-08-09T03:22:25.529Z,47.66
2022-08-09T03:23:24.444Z,47.56
2022-08-09T03:24:31.293Z,47.56
2022-08-09T03:25:58.503Z,47.66
2022-08-09T03:26:22.448Z,48.26
2022-08-09T03:27:22.608Z,47.77
2022-08-09T03:28:21.768Z,47.77
2022-08-09T03:29:22.644Z,47.96
2022-08-09T03:30:28.074Z,47.86
2022-08-09T03:31:23.293Z,47.77
2022-08-09T03:32:22.450Z,47.86
2022-08-09T03:33:22.640Z,47.78
2022-08-09T03:34:22.831Z,48.36
2022-08-09T03:35:24.708Z,48.38
2022-08-09T03:36:27.784Z,48.16
2022-08-09T03:37:55.880Z,48.06
2022-08-09T03:38:28.660Z,48.46
2022-08-09T03:39:28.320Z,48.75
2022-08-09T03:40:24.861Z,48.16
2022-08-09T03:41:29.993Z,48.26
2022-08-09T03:42:29.001Z,48.16
2022-08-09T03:43:25.396Z,48.08
2022-08-09T03:44:27.830Z,48.16
2022-08-09T03:46:03.948Z,48.28
2022-08-09T03:46:29.228Z,48.36
2022-08-09T03:47:25.085Z,48.77
2022-08-09T03:48:30.712Z,48.88
2022-08-09T03:49:26.397Z,49.07
2022-08-09T03:50:28.091Z,48.97
2022-08-09T03:51:55.296Z,48.48
2022-08-09T03:52:28.004Z,48.97
2022-08-09T03:53:32.259Z,48.58
2022-08-09T03:54:29.137Z,48.28
2022-08-09T03:55:26.536Z,48.48
2022-08-09T03:56:26.601Z,48.77
2022-08-09T03:57:26.778Z,48.48
2022-08-09T03:58:27.928Z,49.07
2022-08-09T03:59:42.824Z,48.97
2022-08-09T04:00:28.285Z,48.97
2022-08-09T04:01:27.450Z,49.07
2022-08-09T04:02:28.670Z,48.77
2022-08-09T04:03:35.759Z,48.97
2022-08-09T04:04:36.057Z,48.68
2022-08-09T04:05:29.142Z,48.88
2022-08-09T04:06:28.323Z,48.68
2022-08-09T04:07:47.936Z,48.58
2022-08-09T04:08:29.737Z,48.58
2022-08-09T04:09:48.093Z,48.88
2022-08-09T04:10:30.460Z,48.58
2022-08-09T04:11:29.194Z,48.58
2022-08-09T04:12:30.467Z,48.58
2022-08-09T04:13:45.049Z,48.58
2022-08-09T04:14:43.997Z,48.97
2022-08-09T04:16:17.292Z,48.77
2022-08-09T04:16:31.036Z,48.58
2022-08-09T04:17:30.227Z,48.58
2022-08-09T04:18:30.390Z,48.58
2022-08-09T04:19:42.954Z,48.68
2022-08-09T04:20:31.698Z,49.07
2022-08-09T04:21:30.869Z,48.68
2022-08-09T04:22:32.494Z,48.77
2022-08-09T04:23:31.223Z,48.77
2022-08-09T04:24:31.379Z,48.88
2022-08-09T04:25:31.560Z,48.97
2022-08-09T04:26:37.847Z,49.37
2022-08-09T04:27:32.936Z,49.17
2022-08-09T04:28:36.592Z,49.47
2022-08-09T04:29:33.233Z,49.07
2022-08-09T04:30:32.413Z,49.07
2022-08-09T04:31:37.664Z,49.07
2022-08-09T04:32:37.220Z,49.07
2022-08-09T04:33:32.956Z,49.37
2022-08-09T04:34:34.105Z,48.88
2022-08-09T04:35:33.266Z,48.77
2022-08-09T04:36:33.456Z,48.77
2022-08-09T04:37:45.789Z,48.77
2022-08-09T04:38:34.815Z,48.77
2022-08-09T04:39:34.004Z,48.77
2022-08-09T04:40:36.509Z,49.17
2022-08-09T04:41:43.913Z,48.88
2022-08-09T04:42:35.690Z,49.74
2022-08-09T04:43:35.762Z,49.77
2022-08-09T04:44:34.889Z,49.94
2022-08-09T04:45:36.231Z,49.66
2022-08-09T04:46:36.622Z,49.07
2022-08-09T04:47:59.416Z,48.95
2022-08-09T04:48:36.568Z,48.88
2022-08-09T04:49:54.216Z,48.88
2022-08-09T04:50:37.873Z,48.88
2022-08-09T04:51:36.073Z,48.88
2022-08-09T04:52:36.576Z,48.85
2022-08-09T04:53:36.400Z,49.44
2022-08-09T04:54:36.572Z,49.54
2022-08-09T04:55:40.300Z,49.54
2022-08-09T04:56:37.912Z,49.35
2022-08-09T04:57:58.560Z,49.74
2022-08-09T04:58:38.267Z,49.15
2022-08-09T04:59:37.434Z,49.05
2022-08-09T05:00:37.613Z,49.15
2022-08-09T05:01:37.785Z,49.05
2022-08-09T05:02:38.005Z,49.15
2022-08-09T05:03:42.502Z,48.95
2022-08-09T05:04:39.340Z,48.85
2022-08-09T05:05:51.838Z,48.85
2022-08-09T05:06:39.686Z,48.95
2022-08-09T05:07:38.887Z,49.35
2022-08-09T05:08:39.026Z,49.05
2022-08-09T05:09:45.561Z,49.25
2022-08-09T05:10:40.368Z,49.35
2022-08-09T05:11:39.527Z,48.95
2022-08-09T05:12:39.708Z,49.44
2022-08-09T05:13:39.887Z,49.15
2022-08-09T05:14:40.992Z,49.15
2022-08-09T05:15:47.636Z,48.95
2022-08-09T05:16:43.802Z,49.15
2022-08-09T05:18:42.348Z,49.15
2022-08-09T05:18:57.779Z,48.95
2022-08-09T05:19:46.012Z,49.05
2022-08-09T05:20:41.105Z,49.05
2022-08-09T05:21:46.495Z,49.15
2022-08-09T05:23:53.683Z,49.25
2022-08-09T05:23:55.606Z,49.15
2022-08-09T05:24:42.773Z,48.95
2022-08-09T05:25:41.952Z,49.25
2022-08-09T05:26:45.992Z,49.05
2022-08-09T05:27:46.516Z,48.75
2022-08-09T05:28:42.454Z,48.95
2022-08-09T05:29:42.644Z,49.05
2022-08-09T05:30:47.972Z,49.44
2022-08-09T05:31:46.858Z,49.25
2022-08-09T05:32:44.170Z,49.15
2022-08-09T05:33:43.332Z,49.05
2022-08-09T05:34:45.700Z,48.93
2022-08-09T05:35:46.844Z,48.93
2022-08-09T05:36:47.340Z,48.95
2022-08-09T05:37:46.413Z,49.13
2022-08-09T05:38:46.012Z,48.83
2022-08-09T05:39:44.743Z,49.42
2022-08-09T05:40:47.627Z,49.22
2022-08-09T05:41:45.690Z,49.82
2022-08-09T05:42:44.869Z,49.02
2022-08-09T05:43:45.574Z,49.13
2022-08-09T05:44:45.199Z,49.02
2022-08-09T05:45:55.982Z,49.22
2022-08-09T05:46:46.580Z,49.02
2022-08-09T05:47:52.377Z,49.02
2022-08-09T05:48:58.673Z,49.22
2022-08-09T05:50:30.774Z,49.13
2022-08-09T05:50:57.048Z,48.93
2022-08-09T05:51:47.494Z,48.93
2022-08-09T05:52:53.473Z,49.13
2022-08-09T05:53:56.809Z,48.83
2022-08-09T05:54:49.165Z,48.93
2022-08-09T05:55:47.203Z,48.83
2022-08-09T05:56:54.924Z,48.61
2022-08-09T05:57:55.917Z,48.90
2022-08-09T05:58:48.769Z,48.80
2022-08-09T05:59:47.915Z,48.61
2022-08-09T06:00:48.105Z,48.80
2022-08-09T06:01:48.276Z,49.30
2022-08-09T06:02:48.441Z,48.71
2022-08-09T06:03:58.140Z,48.90
2022-08-09T06:04:49.798Z,48.80
2022-08-09T06:05:57.450Z,48.71
2022-08-09T06:06:50.262Z,48.61
2022-08-09T06:07:49.610Z,48.71
2022-08-09T06:08:52.535Z,48.51
2022-08-09T06:09:54.742Z,48.51
2022-08-09T06:10:50.873Z,48.39
2022-08-09T06:11:57.161Z,48.68
2022-08-09T06:12:59.344Z,48.98
2022-08-09T06:13:51.410Z,48.58
2022-08-09T06:14:50.571Z,48.98
2022-08-09T06:15:51.082Z,48.68
2022-08-09T06:16:52.080Z,48.58
2022-08-09T06:17:51.062Z,48.39
2022-08-09T06:18:51.205Z,48.39
2022-08-09T06:19:51.391Z,48.28
2022-08-09T06:20:54.722Z,48.28
2022-08-09T06:21:58.384Z,48.27
2022-08-09T06:22:52.879Z,48.09
2022-08-09T06:23:57.357Z,48.27
2022-08-09T06:24:53.217Z,48.27
2022-08-09T06:25:55.364Z,48.16
2022-08-09T06:26:52.532Z,48.07
2022-08-09T06:27:52.707Z,48.07
2022-08-09T06:29:00.073Z,48.07
2022-08-09T06:30:04.663Z,48.07
2022-08-09T06:30:54.217Z,47.97
2022-08-09T06:32:52.799Z,47.87
2022-08-09T06:33:00.348Z,47.87
2022-08-09T06:33:54.729Z,47.85
2022-08-09T06:34:53.879Z,47.85
2022-08-09T06:35:56.940Z,47.75
2022-08-09T06:36:59.094Z,47.75
2022-08-09T06:38:05.667Z,47.75
2022-08-09T06:38:57.006Z,47.85
2022-08-09T06:39:59.824Z,47.85
2022-08-09T06:40:55.922Z,47.65
2022-08-09T06:42:09.083Z,47.85
2022-08-09T06:42:56.293Z,47.85
2022-08-09T06:43:55.453Z,47.65
2022-08-09T06:44:55.633Z,47.65
2022-08-09T06:46:07.479Z,47.45
2022-08-09T06:46:57.028Z,47.25
2022-08-09T06:48:00.871Z,47.33
2022-08-09T06:49:00.059Z,47.33
2022-08-09T06:50:14.884Z,47.13
2022-08-09T06:50:57.677Z,47.03
2022-08-09T06:51:56.880Z,47.03
2022-08-09T06:52:57.017Z,47.03
2022-08-09T06:54:00.966Z,46.94
2022-08-09T06:54:57.355Z,46.94
2022-08-09T06:55:57.537Z,46.84
2022-08-09T06:56:57.727Z,46.84
2022-08-09T06:58:02.735Z,46.94
2022-08-09T07:00:52.217Z,46.94
2022-08-09T07:00:55.352Z,46.84
2022-08-09T07:00:59.894Z,46.74
2022-08-09T07:01:59.766Z,46.74
2022-08-09T07:02:59.809Z,46.64
2022-08-09T07:04:03.975Z,46.64
2022-08-09T07:05:00.175Z,46.52
2022-08-09T07:06:03.815Z,46.42
2022-08-09T07:07:01.088Z,46.42
2022-08-09T07:08:01.970Z,46.42
2022-08-09T07:08:59.851Z,46.62
2022-08-09T07:10:14.163Z,46.62
2022-08-09T07:11:01.172Z,46.52
2022-08-09T07:12:00.363Z,46.42
2022-08-09T07:13:00.533Z,46.32
2022-08-09T07:14:05.028Z,46.32
2022-08-09T07:15:53.158Z,46.32
2022-08-09T07:16:41.370Z,46.52
2022-08-09T07:17:02.235Z,46.62
2022-08-09T07:18:02.591Z,46.62
2022-08-09T07:19:01.551Z,46.42
2022-08-09T07:20:01.728Z,46.50
2022-08-09T07:21:01.915Z,46.40
2022-08-09T07:22:02.208Z,46.40
2022-08-09T07:23:02.277Z,46.30
2022-08-09T07:24:03.448Z,46.30
2022-08-09T07:25:05.528Z,46.20
2022-08-09T07:26:03.901Z,46.30
2022-08-09T07:27:02.972Z,46.20
2022-08-09T07:28:04.386Z,46.20
2022-08-09T07:29:08.917Z,46.30
2022-08-09T07:30:04.489Z,46.20
2022-08-09T07:31:03.676Z,46.59
2022-08-09T07:32:03.851Z,46.30
2022-08-09T07:33:12.308Z,46.30
2022-08-09T07:34:05.205Z,46.20
2022-08-09T07:35:10.701Z,46.28
2022-08-09T07:36:05.571Z,46.28
2022-08-09T07:37:04.741Z,46.18
2022-08-09T07:38:04.931Z,46.08
2022-08-09T07:39:05.153Z,46.08
2022-08-09T07:40:06.302Z,45.98
2022-08-09T07:41:12.692Z,45.88
2022-08-09T07:42:06.639Z,45.78
2022-08-09T07:43:14.830Z,45.78
2022-08-09T07:44:06.945Z,45.68
2022-08-09T07:45:14.825Z,45.49
2022-08-09T07:46:07.300Z,45.49
2022-08-09T07:47:06.447Z,45.49
2022-08-09T07:48:06.637Z,45.39
2022-08-09T07:49:08.245Z,45.39
2022-08-09T07:50:08.669Z,45.39
2022-08-09T07:52:02.875Z,45.39
2022-08-09T07:52:17.269Z,45.29
2022-08-09T07:53:08.549Z,45.29
2022-08-09T07:54:08.675Z,45.29
2022-08-09T07:55:09.820Z,45.19
2022-08-09T07:56:08.039Z,45.19
2022-08-09T07:57:12.523Z,45.19
2022-08-09T07:58:13.209Z,45.09
2022-08-09T07:59:15.772Z,45.09
2022-08-09T08:00:09.719Z,45.00
2022-08-09T08:01:11.419Z,45.09
2022-08-09T08:02:09.358Z,45.00
2022-08-09T08:03:09.835Z,45.09
2022-08-09T08:04:10.686Z,45.09
2022-08-09T08:05:17.657Z,45.19
2022-08-09T08:06:10.791Z,45.09
2022-08-09T08:07:57.226Z,45.39
2022-08-09T08:09:02.258Z,45.09
2022-08-09T08:09:36.456Z,45.07
2022-08-09T08:10:11.616Z,44.90
2022-08-09T08:12:10.349Z,44.60
2022-08-09T08:12:27.692Z,44.70
2022-08-09T08:13:12.033Z,44.80
2022-08-09T08:14:11.212Z,44.90
2022-08-09T08:15:11.357Z,44.90
2022-08-09T08:16:31.676Z,45.02
2022-08-09T08:17:24.822Z,45.02
2022-08-09T08:18:14.302Z,45.12
2022-08-09T08:19:12.057Z,45.12
2022-08-09T08:20:12.573Z,45.21
2022-08-09T08:21:12.430Z,45.21
2022-08-09T08:22:12.589Z,45.31
2022-08-09T08:23:16.694Z,45.53
2022-08-09T08:24:16.712Z,45.43
2022-08-09T08:25:13.834Z,45.73
2022-08-09T08:26:13.283Z,45.53
2022-08-09T08:27:16.936Z,45.43
2022-08-09T08:28:15.032Z,45.34
2022-08-09T08:29:13.801Z,45.34
2022-08-09T08:30:13.982Z,45.34
2022-08-09T08:31:15.235Z,45.14
2022-08-09T08:32:14.332Z,45.04
2022-08-09T08:33:22.803Z,44.94
2022-08-09T08:34:15.679Z,45.14
2022-08-09T08:35:18.214Z,44.94
2022-08-09T08:36:28.511Z,44.84
2022-08-09T08:37:17.789Z,44.84
2022-08-09T08:38:15.386Z,44.94
2022-08-09T08:39:15.623Z,44.84
2022-08-09T08:40:15.727Z,44.84
2022-08-09T08:41:15.875Z,44.94
2022-08-09T08:42:16.108Z,45.24
2022-08-09T08:43:16.227Z,45.53
2022-08-09T08:44:16.430Z,45.43
2022-08-09T08:45:17.600Z,45.43
2022-08-09T08:46:33.564Z,45.53
2022-08-09T08:47:17.928Z,45.73
2022-08-09T08:48:19.536Z,45.53
2022-08-09T08:49:19.026Z,45.53
2022-08-09T08:50:18.253Z,45.53
2022-08-09T08:51:18.239Z,45.53
2022-08-09T08:52:52.838Z,45.73
2022-08-09T08:53:21.774Z,45.63
2022-08-09T08:54:20.600Z,45.24
2022-08-09T08:55:23.469Z,45.24
2022-08-09T08:56:27.985Z,45.41
2022-08-09T08:57:19.696Z,45.61
2022-08-09T08:58:18.877Z,45.41
2022-08-09T08:59:20.632Z,45.71
2022-08-09T09:00:27.333Z,45.51
2022-08-09T09:01:24.625Z,46.00
2022-08-09T09:02:20.983Z,45.81
2022-08-09T09:03:25.299Z,45.88
2022-08-09T09:04:26.818Z,45.68
2022-08-09T09:05:21.095Z,45.59
2022-08-09T09:06:21.297Z,45.49
2022-08-09T09:07:20.448Z,45.49
2022-08-09T09:08:30.276Z,45.39
2022-08-09T09:09:41.229Z,45.37
2022-08-09T09:10:21.998Z,45.37
2022-08-09T09:11:21.187Z,45.27
2022-08-09T09:12:21.716Z,45.07
2022-08-09T09:13:21.544Z,44.29
2022-08-09T09:14:21.689Z,44.78
2022-08-09T09:15:28.237Z,44.85
2022-08-09T09:16:30.963Z,44.85
2022-08-09T09:17:23.250Z,44.66
2022-08-09T09:18:22.401Z,44.46
2022-08-09T09:19:40.308Z,44.17
2022-08-09T09:20:25.856Z,43.87
2022-08-09T09:21:26.047Z,43.57
2022-08-09T09:22:34.435Z,43.46
2022-08-09T09:23:24.312Z,43.36
2022-08-09T09:24:24.504Z,43.65
2022-08-09T09:26:03.275Z,43.46
2022-08-09T09:26:26.183Z,43.36
2022-08-09T09:28:03.641Z,43.26
2022-08-09T09:29:02.371Z,43.06
2022-08-09T09:29:25.375Z,42.77
2022-08-09T09:30:41.194Z,42.75
2022-08-09T09:32:01.627Z,42.65
2022-08-09T09:32:34.626Z,42.16
2022-08-09T09:33:26.017Z,42.16
2022-08-09T09:34:28.929Z,42.25
2022-08-09T09:35:26.460Z,42.06
2022-08-09T09:36:26.535Z,42.06
2022-08-09T09:37:25.710Z,42.16
2022-08-09T09:38:36.382Z,41.94
2022-08-09T09:39:42.906Z,42.04
2022-08-09T09:40:27.303Z,41.94
2022-08-09T09:41:27.897Z,42.04
2022-08-09T09:42:27.621Z,42.04
2022-08-09T09:43:26.780Z,41.84
2022-08-09T09:44:31.350Z,41.64
2022-08-09T09:45:29.533Z,41.64
2022-08-09T09:46:45.662Z,41.45
2022-08-09T09:47:28.780Z,41.35
2022-08-09T09:48:27.634Z,41.14
2022-08-09T09:49:50.215Z,41.03
2022-08-09T09:50:28.984Z,40.94
2022-08-09T09:51:38.424Z,40.84
2022-08-09T09:52:52.230Z,40.84
2022-08-09T09:53:57.425Z,40.74
2022-08-09T09:54:29.697Z,40.64
2022-08-09T09:55:33.271Z,40.55
2022-08-09T09:56:31.715Z,40.35
2022-08-09T09:58:02.606Z,40.06
2022-08-09T09:58:30.397Z,40.35
2022-08-09T09:59:29.587Z,39.95
2022-08-09T10:00:30.782Z,40.03
2022-08-09T10:01:35.888Z,39.94
2022-08-09T10:02:31.240Z,40.13
2022-08-09T10:03:30.298Z,40.03
2022-08-09T10:04:31.352Z,40.23
2022-08-09T10:06:03.745Z,40.23
2022-08-09T10:06:32.302Z,40.23
2022-08-09T10:07:31.125Z,40.33
2022-08-09T10:08:31.105Z,40.33
2022-08-09T10:09:31.272Z,40.72
2022-08-09T10:10:31.923Z,40.62
2022-08-09T10:11:58.898Z,40.72
2022-08-09T10:12:32.802Z,40.53
2022-08-09T10:13:43.424Z,40.51
2022-08-09T10:14:33.957Z,40.51
2022-08-09T10:16:08.904Z,40.61
2022-08-09T10:16:57.676Z,40.41
2022-08-09T10:17:51.025Z,40.61
2022-08-09T10:18:33.825Z,40.41
2022-08-09T10:19:32.983Z,40.41
2022-08-09T10:20:44.481Z,40.41
2022-08-09T10:21:34.344Z,40.41
2022-08-09T10:22:34.144Z,40.39
2022-08-09T10:23:33.668Z,40.29
2022-08-09T10:24:35.557Z,40.39
2022-08-09T10:25:34.817Z,40.19
2022-08-09T10:26:35.158Z,40.29
2022-08-09T10:27:34.670Z,40.00
2022-08-09T10:28:34.488Z,39.98
2022-08-09T10:30:41.757Z,40.08
2022-08-09T10:32:40.131Z,40.08
2022-08-09T10:34:08.173Z,40.08
2022-08-09T10:34:36.609Z,39.96
2022-08-09T10:35:35.762Z,39.96
2022-08-09T10:36:35.949Z,39.84
2022-08-09T10:37:38.392Z,39.74
2022-08-09T10:38:55.832Z,39.64
2022-08-09T10:39:40.531Z,39.45
2022-08-09T10:40:41.105Z,39.23
2022-08-09T10:41:37.873Z,39.14
2022-08-09T10:42:37.024Z,39.04
2022-08-09T10:43:46.879Z,39.22
2022-08-09T10:44:39.938Z,39.51
2022-08-09T10:45:42.396Z,40.00
2022-08-09T10:46:52.605Z,39.90
2022-08-09T10:48:19.402Z,40.00
2022-08-09T10:48:39.176Z,39.80
2022-08-09T10:49:49.890Z,39.70
2022-08-09T10:50:39.416Z,39.80
2022-08-09T10:51:40.793Z,39.70
2022-08-09T10:52:42.970Z,39.61
2022-08-09T10:53:46.903Z,39.70
2022-08-09T10:54:40.098Z,39.61
2022-08-09T10:55:58.013Z,39.61
2022-08-09T10:56:40.442Z,39.51
2022-08-09T10:57:41.752Z,39.51
2022-08-09T10:58:39.779Z,39.31
2022-08-09T10:59:55.690Z,39.62
2022-08-09T11:00:50.824Z,39.41
2022-08-09T11:03:13.856Z,39.41
2022-08-09T11:03:15.746Z,39.51
2022-08-09T11:03:51.489Z,39.41
2022-08-09T11:04:55.657Z,39.31
2022-08-09T11:06:00.492Z,39.31
2022-08-09T11:06:44.727Z,39.22
2022-08-09T11:07:58.160Z,39.12
2022-08-09T11:08:46.711Z,39.02
2022-08-09T11:09:47.680Z,38.92
2022-08-09T11:10:47.201Z,38.92
2022-08-09T11:11:43.679Z,39.41
2022-08-09T11:12:43.155Z,39.22
2022-08-09T11:13:50.339Z,39.12
2022-08-09T11:14:44.074Z,39.02
2022-08-09T11:15:51.231Z,38.82
2022-08-09T11:16:43.835Z,38.82
2022-08-09T11:17:42.988Z,38.81
2022-08-09T11:18:44.907Z,38.71
2022-08-09T11:20:10.637Z,38.81
2022-08-09T11:20:44.568Z,38.71
2022-08-09T11:21:43.727Z,38.61
2022-08-09T11:22:45.015Z,38.61
2022-08-09T11:23:46.329Z,38.71
2022-08-09T11:24:45.215Z,38.71
2022-08-09T11:25:47.296Z,38.61
2022-08-09T11:26:47.378Z,38.61
2022-08-09T11:28:02.679Z,38.51
2022-08-09T11:28:56.745Z,38.71
2022-08-09T11:30:04.801Z,38.61
2022-08-09T11:30:48.055Z,38.51
2022-08-09T11:31:48.881Z,38.42
2022-08-09T11:32:46.598Z,38.51
2022-08-09T11:33:45.784Z,38.42
2022-08-09T11:34:45.954Z,38.51
2022-08-09T11:35:50.311Z,38.61
2022-08-09T11:36:47.284Z,38.61
2022-08-09T11:37:49.808Z,37.54
2022-08-09T11:38:46.674Z,37.71
2022-08-09T11:39:46.906Z,36.93
2022-08-09T11:40:47.017Z,37.21
2022-08-09T11:41:47.156Z,37.29
2022-08-09T11:42:48.514Z,37.07
2022-08-09T11:43:47.507Z,36.76
2022-08-09T11:44:47.698Z,36.53
2022-08-09T11:45:47.850Z,36.02
2022-08-09T11:46:48.010Z,36.04
2022-08-09T11:47:48.202Z,36.24
2022-08-09T11:48:48.358Z,36.25
2022-08-09T11:50:53.293Z,36.35
2022-08-09T11:50:55.557Z,36.35
2022-08-09T11:52:57.122Z,36.47
2022-08-09T11:53:21.410Z,36.57
2022-08-09T11:53:59.318Z,36.76
2022-08-09T11:54:50.386Z,36.98
2022-08-09T11:55:53.413Z,36.98
2022-08-09T11:56:50.799Z,37.07
2022-08-09T11:58:02.162Z,37.07
2022-08-09T11:58:51.076Z,37.17
2022-08-09T11:59:52.412Z,37.17
2022-08-09T12:00:53.116Z,37.17
2022-08-09T12:02:17.866Z,37.17
2022-08-09T12:02:53.583Z,37.27
2022-08-09T12:03:57.447Z,37.07
2022-08-09T12:04:58.768Z,36.88
2022-08-09T12:05:52.278Z,36.86
2022-08-09T12:06:53.172Z,36.86
2022-08-09T12:07:54.631Z,36.86
2022-08-09T12:08:51.772Z,36.57
2022-08-09T12:09:51.961Z,36.47
2022-08-09T12:10:53.099Z,36.35
2022-08-09T12:12:03.625Z,36.45
2022-08-09T12:12:53.430Z,36.35
2022-08-09T12:14:07.727Z,36.35
2022-08-09T12:15:08.097Z,36.45
2022-08-09T12:15:53.920Z,36.35
2022-08-09T12:16:53.492Z,36.55
2022-08-09T12:17:53.525Z,36.45
2022-08-09T12:18:53.967Z,36.45
2022-08-09T12:19:53.614Z,36.45
2022-08-09T12:20:54.793Z,36.45
2022-08-09T12:21:54.005Z,36.16
2022-08-09T12:22:55.746Z,36.04
2022-08-09T12:24:06.480Z,36.04
2022-08-09T12:24:55.515Z,36.04
2022-08-09T12:25:54.687Z,36.04
2022-08-09T12:28:58.297Z,36.04
2022-08-09T12:29:00.216Z,35.94
2022-08-09T12:29:10.494Z,36.04
2022-08-09T12:30:02.089Z,35.85
2022-08-09T12:30:56.546Z,35.94
2022-08-09T12:31:59.072Z,35.85
2022-08-09T12:32:56.885Z,35.63
2022-08-09T12:34:00.728Z,35.63
2022-08-09T12:34:57.239Z,35.63
2022-08-09T12:35:56.399Z,35.73
2022-08-09T12:36:59.021Z,35.63
2022-08-09T12:37:57.730Z,35.63
2022-08-09T12:38:56.909Z,35.53
2022-08-09T12:39:57.054Z,35.53
2022-08-09T12:40:57.241Z,35.61
2022-08-09T12:41:57.433Z,35.61
2022-08-09T12:42:57.604Z,35.52
2022-08-09T12:44:06.985Z,35.52
2022-08-09T12:44:59.324Z,35.91
2022-08-09T12:46:00.368Z,35.81
2022-08-09T12:46:58.314Z,35.71
2022-08-09T12:47:58.495Z,35.50
2022-08-09T12:48:58.667Z,35.21
2022-08-09T12:49:58.844Z,35.31
2022-08-09T12:50:59.443Z,35.11
2022-08-09T12:52:02.416Z,35.02
2022-08-09T12:53:17.890Z,35.41
2022-08-09T12:54:00.506Z,35.50
2022-08-09T12:56:10.770Z,35.02
2022-08-09T12:56:14.817Z,35.10
2022-08-09T12:57:00.998Z,35.00